OHPMK EFHN-EFHV

Flight info

Callsign OHPMK
Flight time 0h 45m
Altitude 5000
Route NUNTO
Aircraft P28R/L-SDGRY/S

Departure

Time 2026-04-13 14:33
Airport Hanko Airfield (EFHN)

Arrival

Time 2026-04-13 15:18
Airport Hyvinkää Airfield (EFHV)
Time Latitude Longitude Altitude Speed Heading
2026-04-13 14:20 59.84317 23.08080 28 ft 0 kts 33°
2026-04-13 14:29 59.84318 23.08082 22 ft 2 kts 33°
2026-04-13 14:29 59.84344 23.08024 21 ft 9 kts 306°
2026-04-13 14:29 59.84351 23.08006 21 ft 0 kts 306°
2026-04-13 14:30 59.84351 23.08005 21 ft 1 kts 306°
2026-04-13 14:31 59.84375 23.07938 22 ft 10 kts 305°
2026-04-13 14:31 59.84407 23.07968 22 ft 7 kts 31°
2026-04-13 14:31 59.84409 23.07970 22 ft 0 kts 32°
2026-04-13 14:32 59.84462 23.08041 22 ft 33 kts 33°
2026-04-13 14:32 59.84789 23.08473 26 ft 79 kts 35°
2026-04-13 14:32 59.85282 23.09125 194 ft 91 kts 37°
2026-04-13 14:32 59.85790 23.09884 477 ft 89 kts 46°
2026-04-13 14:33 59.86174 23.10737 740 ft 82 kts 61°
2026-04-13 14:33 59.86404 23.11826 841 ft 90 kts 58°
2026-04-13 14:33 59.86744 23.12943 983 ft 98 kts 62°
2026-04-13 14:33 59.87086 23.14153 1152 ft 102 kts 61°
2026-04-13 14:34 59.87450 23.15400 1318 ft 106 kts 61°
2026-04-13 14:34 59.87815 23.16676 1481 ft 108 kts 62°
2026-04-13 14:34 59.88185 23.17966 1649 ft 108 kts 62°
2026-04-13 14:34 59.88553 23.19240 1886 ft 105 kts 61°
2026-04-13 14:35 59.88908 23.20472 2116 ft 99 kts 62°
2026-04-13 14:35 59.89244 23.21644 2331 ft 96 kts 62°
2026-04-13 14:35 59.89575 23.22800 2563 ft 96 kts 62°
2026-04-13 14:35 59.89910 23.23951 2797 ft 97 kts 62°
2026-04-13 14:36 59.90245 23.25141 3036 ft 98 kts 61°
2026-04-13 14:36 59.90590 23.26354 3270 ft 101 kts 61°
2026-04-13 14:36 59.90935 23.27556 3499 ft 100 kts 61°
2026-04-13 14:36 59.91272 23.28738 3732 ft 98 kts 61°
2026-04-13 14:37 59.91611 23.29922 3959 ft 97 kts 61°
2026-04-13 14:37 59.91945 23.31089 4194 ft 98 kts 61°
2026-04-13 14:37 59.92277 23.32251 4417 ft 94 kts 60°
2026-04-13 14:37 59.92596 23.33372 4648 ft 92 kts 60°
2026-04-13 14:38 59.92909 23.34464 4874 ft 89 kts 60°
2026-04-13 14:38 59.93211 23.35522 5102 ft 86 kts 60°
2026-04-13 14:38 59.93503 23.36544 5324 ft 84 kts 60°
2026-04-13 14:38 59.93787 23.37541 5543 ft 81 kts 60°
2026-04-13 14:39 59.94058 23.38487 5760 ft 78 kts 60°
2026-04-13 14:39 59.94318 23.39399 5975 ft 74 kts 59°
2026-04-13 14:39 59.94568 23.40277 6187 ft 71 kts 59°
2026-04-13 14:39 59.94803 23.41098 6393 ft 65 kts 59°
2026-04-13 14:40 59.95033 23.41884 6500 ft 74 kts 60°
2026-04-13 14:40 59.95312 23.42895 6547 ft 91 kts 60°
2026-04-13 14:40 59.95645 23.44079 6530 ft 104 kts 60°
2026-04-13 14:40 59.96014 23.45392 6513 ft 112 kts 60°
2026-04-13 14:41 59.96406 23.46774 6510 ft 117 kts 60°
2026-04-13 14:41 59.96802 23.48178 6504 ft 118 kts 60°
2026-04-13 14:41 59.97207 23.49608 6501 ft 119 kts 60°
2026-04-13 14:41 59.97615 23.51049 6504 ft 119 kts 60°
2026-04-13 14:42 59.98024 23.52497 6502 ft 120 kts 60°
2026-04-13 14:42 59.98434 23.53948 6498 ft 120 kts 60°
2026-04-13 14:42 59.98844 23.55399 6502 ft 120 kts 60°
2026-04-13 14:42 59.99253 23.56850 6498 ft 120 kts 60°
2026-04-13 14:43 59.99663 23.58302 6502 ft 120 kts 60°
2026-04-13 14:43 60.00069 23.59741 6504 ft 120 kts 60°
2026-04-13 14:43 60.00481 23.61200 6501 ft 121 kts 60°
2026-04-13 14:43 60.00893 23.62670 6499 ft 121 kts 60°
2026-04-13 14:44 60.01305 23.64132 6495 ft 120 kts 60°
2026-04-13 14:44 60.01715 23.65587 6496 ft 120 kts 60°
2026-04-13 14:44 60.02125 23.67045 6498 ft 121 kts 60°
2026-04-13 14:44 60.02536 23.68502 6500 ft 120 kts 60°
2026-04-13 14:45 60.02944 23.69960 6501 ft 120 kts 61°
2026-04-13 14:45 60.03352 23.71422 6497 ft 121 kts 60°
2026-04-13 14:45 60.03763 23.72888 6494 ft 121 kts 60°
2026-04-13 14:45 60.04167 23.74327 6497 ft 121 kts 60°
2026-04-13 14:46 60.04577 23.75793 6504 ft 121 kts 60°
2026-04-13 14:46 60.04988 23.77259 6500 ft 121 kts 61°
2026-04-13 14:46 60.05398 23.78727 6506 ft 121 kts 60°
2026-04-13 14:46 60.05807 23.80191 6500 ft 120 kts 60°
2026-04-13 14:47 60.06216 23.81653 6498 ft 121 kts 61°
2026-04-13 14:47 60.06625 23.83120 6497 ft 120 kts 60°
2026-04-13 14:47 60.07032 23.84577 6491 ft 120 kts 60°
2026-04-13 14:47 60.07438 23.86036 6488 ft 120 kts 60°
2026-04-13 14:48 60.07837 23.87469 6491 ft 119 kts 60°
2026-04-13 14:48 60.08242 23.88924 6488 ft 119 kts 60°
2026-04-13 14:48 60.08785 23.90142 6491 ft 117 kts 43°
2026-04-13 14:48 60.09380 23.91272 6490 ft 118 kts 41°
2026-04-13 14:49 60.10021 23.92311 6496 ft 120 kts 39°
2026-04-13 14:49 60.10673 23.93364 6493 ft 120 kts 40°
2026-04-13 14:49 60.11325 23.94421 6496 ft 121 kts 40°
2026-04-13 14:49 60.11977 23.95478 6495 ft 120 kts 39°
2026-04-13 14:50 60.12626 23.96526 6491 ft 119 kts 40°
2026-04-13 14:50 60.13270 23.97570 6495 ft 119 kts 40°
2026-04-13 14:50 60.13906 23.98618 6490 ft 120 kts 40°
2026-04-13 14:50 60.14553 23.99678 6493 ft 120 kts 39°
2026-04-13 14:51 60.15176 24.00699 6493 ft 118 kts 39°
2026-04-13 14:51 60.15817 24.01742 6494 ft 119 kts 39°
2026-04-13 14:51 60.16464 24.02794 6493 ft 119 kts 39°
2026-04-13 14:51 60.17115 24.03847 6494 ft 120 kts 39°
2026-04-13 14:52 60.17766 24.04903 6489 ft 120 kts 39°
2026-04-13 14:52 60.18415 24.05956 6489 ft 120 kts 39°
2026-04-13 14:52 60.19064 24.07009 6488 ft 119 kts 39°
2026-04-13 14:52 60.19703 24.08042 6491 ft 119 kts 39°
2026-04-13 14:53 60.20354 24.09094 6493 ft 120 kts 39°
2026-04-13 14:53 60.21001 24.10137 6492 ft 119 kts 39°
2026-04-13 14:53 60.21651 24.11178 6492 ft 120 kts 39°
2026-04-13 14:53 60.22302 24.12224 6490 ft 119 kts 39°
2026-04-13 14:54 60.22952 24.13265 6503 ft 120 kts 39°
2026-04-13 14:54 60.23605 24.14316 6496 ft 120 kts 39°
2026-04-13 14:54 60.24257 24.15362 6496 ft 120 kts 39°
2026-04-13 14:54 60.24908 24.16408 6499 ft 119 kts 39°
2026-04-13 14:55 60.25550 24.17432 6489 ft 120 kts 39°
2026-04-13 14:55 60.26201 24.18473 6491 ft 119 kts 39°
2026-04-13 14:55 60.26855 24.19514 6490 ft 120 kts 39°
2026-04-13 14:55 60.27504 24.20550 6488 ft 118 kts 39°
2026-04-13 14:56 60.28155 24.21581 6492 ft 119 kts 39°
2026-04-13 14:56 60.28807 24.22618 6489 ft 119 kts 39°
2026-04-13 14:56 60.29454 24.23642 6490 ft 118 kts 39°
2026-04-13 14:56 60.30103 24.24671 6490 ft 119 kts 38°
2026-04-13 14:57 60.30760 24.25687 6490 ft 119 kts 39°
2026-04-13 14:57 60.31426 24.26671 6494 ft 118 kts 38°
2026-04-13 14:57 60.32089 24.27655 6492 ft 118 kts 38°
2026-04-13 14:58 60.33422 24.29636 6492 ft 120 kts 38°
2026-04-13 14:58 60.34087 24.30621 6490 ft 119 kts 38°
2026-04-13 14:58 60.34753 24.31606 6491 ft 118 kts 38°
2026-04-13 14:58 60.35420 24.32585 6490 ft 119 kts 38°
2026-04-13 14:59 60.36089 24.33571 6490 ft 119 kts 38°
2026-04-13 14:59 60.36758 24.34556 6492 ft 119 kts 38°
2026-04-13 14:59 60.37431 24.35545 6495 ft 119 kts 38°
2026-04-13 14:59 60.38093 24.36505 6491 ft 119 kts 38°
2026-04-13 15:00 60.38766 24.37483 6501 ft 120 kts 38°
2026-04-13 15:00 60.39440 24.38470 6497 ft 120 kts 38°
2026-04-13 15:00 60.40113 24.39451 6501 ft 119 kts 38°
2026-04-13 15:00 60.40785 24.40428 6500 ft 119 kts 38°
2026-04-13 15:01 60.41458 24.41410 6502 ft 119 kts 38°
2026-04-13 15:01 60.42133 24.42390 6509 ft 119 kts 38°
2026-04-13 15:01 60.42808 24.43366 6509 ft 119 kts 38°
2026-04-13 15:01 60.43481 24.44343 6512 ft 120 kts 38°
2026-04-13 15:02 60.43931 24.44996 6511 ft 119 kts 38°
2026-04-13 15:02 60.44607 24.45973 6511 ft 119 kts 38°
2026-04-13 15:02 60.45504 24.47266 6510 ft 120 kts 37°
2026-04-13 15:02 60.45963 24.47925 6511 ft 120 kts 38°
2026-04-13 15:03 60.46644 24.48895 6508 ft 119 kts 38°
2026-04-13 15:03 60.47316 24.49848 6501 ft 119 kts 37°
2026-04-13 15:03 60.47997 24.50819 6499 ft 120 kts 37°
2026-04-13 15:03 60.48678 24.51788 6497 ft 119 kts 37°
2026-04-13 15:04 60.49354 24.52754 6505 ft 119 kts 37°
2026-04-13 15:04 60.50032 24.53718 6505 ft 119 kts 37°
2026-04-13 15:04 60.50713 24.54678 6503 ft 119 kts 37°
2026-04-13 15:04 60.51392 24.55645 6505 ft 119 kts 37°
2026-04-13 15:05 60.52072 24.56615 6503 ft 119 kts 37°
2026-04-13 15:05 60.52755 24.57576 6501 ft 119 kts 37°
2026-04-13 15:05 60.53438 24.58536 6503 ft 119 kts 37°
2026-04-13 15:05 60.54118 24.59488 6503 ft 119 kts 37°
2026-04-13 15:06 60.54805 24.60443 6497 ft 119 kts 37°
2026-04-13 15:06 60.55482 24.61377 6495 ft 119 kts 37°
2026-04-13 15:06 60.56171 24.62324 6491 ft 120 kts 38°
2026-04-13 15:06 60.56867 24.63276 6498 ft 120 kts 37°
2026-04-13 15:07 60.57564 24.64221 6497 ft 121 kts 38°
2026-04-13 15:07 60.58262 24.65161 6497 ft 120 kts 37°
2026-04-13 15:07 60.58962 24.66096 6492 ft 120 kts 36°
2026-04-13 15:07 60.59657 24.67037 6494 ft 119 kts 36°
2026-04-13 15:08 60.60350 24.67987 6497 ft 121 kts 37°
2026-04-13 15:08 60.61076 24.68853 6496 ft 122 kts 27°
2026-04-13 15:08 60.61856 24.69489 6496 ft 122 kts 26°
2026-04-13 15:08 60.62653 24.70133 6496 ft 122 kts 25°
2026-04-13 15:09 60.63433 24.70757 6495 ft 122 kts 25°
2026-04-13 15:09 60.64225 24.71401 6497 ft 123 kts 25°
2026-04-13 15:09 60.65019 24.72054 6499 ft 124 kts 25°
2026-04-13 15:09 60.65818 24.72709 6498 ft 123 kts 25°
2026-04-13 15:10 60.66614 24.73354 6500 ft 123 kts 26°
2026-04-13 15:10 60.67414 24.73987 6500 ft 123 kts 25°
2026-04-13 15:10 60.68213 24.74623 6498 ft 123 kts 25°
2026-04-13 15:10 60.69011 24.75263 6500 ft 123 kts 24°
2026-04-13 15:11 60.69812 24.75918 6499 ft 124 kts 25°
2026-04-13 15:11 60.71391 24.77181 6498 ft 123 kts 26°
2026-04-13 15:11 60.72209 24.77826 6302 ft 134 kts 25°
2026-04-13 15:12 60.73111 24.78545 5983 ft 145 kts 25°
2026-04-13 15:12 60.74069 24.79339 5611 ft 151 kts 24°
2026-04-13 15:12 60.75052 24.80173 5239 ft 154 kts 25°
2026-04-13 15:12 60.75963 24.81241 4840 ft 149 kts 39°
2026-04-13 15:13 60.76391 24.83078 4430 ft 149 kts 91°
2026-04-13 15:13 60.75891 24.84865 4028 ft 153 kts 143°
2026-04-13 15:13 60.74852 24.85413 3644 ft 157 kts 174°
2026-04-13 15:13 60.73775 24.85304 3257 ft 153 kts 181°
2026-04-13 15:14 60.72721 24.85102 2873 ft 151 kts 182°
2026-04-13 15:14 60.71692 24.84913 2487 ft 150 kts 182°
2026-04-13 15:14 60.70659 24.84723 2092 ft 148 kts 181°
2026-04-13 15:14 60.69679 24.84536 2036 ft 130 kts 182°
2026-04-13 15:15 60.68805 24.84363 1941 ft 124 kts 181°
2026-04-13 15:15 60.67971 24.84479 1848 ft 119 kts 157°
2026-04-13 15:15 60.67222 24.85161 1768 ft 118 kts 150°
2026-04-13 15:15 60.66780 24.86422 1663 ft 116 kts 91°
2026-04-13 15:16 60.67222 24.87742 1541 ft 120 kts 35°
2026-04-13 15:16 60.67888 24.88664 1435 ft 116 kts 43°
2026-04-13 15:16 60.68475 24.89754 1317 ft 109 kts 63°
2026-04-13 15:16 60.68468 24.91169 1199 ft 102 kts 116°
2026-04-13 15:17 60.68028 24.92158 1076 ft 96 kts 163°
2026-04-13 15:17 60.67403 24.91790 1014 ft 91 kts 192°
2026-04-13 15:17 60.66876 24.91083 857 ft 95 kts 217°
2026-04-13 15:17 60.66408 24.90106 701 ft 99 kts 219°
2026-04-13 15:18 60.65935 24.89143 471 ft 92 kts 221°
2026-04-13 15:18 60.65552 24.88366 441 ft 54 kts 228°
2026-04-13 15:18 60.65410 24.88065 436 ft 24 kts 226°
2026-04-13 15:18 60.65352 24.87988 434 ft 3 kts 135°
2026-04-13 15:19 60.65350 24.87993 434 ft 0 kts 134°
2026-04-13 15:19 60.65334 24.88036 434 ft 5 kts 87°
2026-04-13 15:19 60.65353 24.88094 434 ft 3 kts 46°
2026-04-13 15:19 60.65379 24.88129 436 ft 6 kts 44°
2026-04-13 15:20 60.65424 24.88226 428 ft 14 kts 45°
2026-04-13 15:20 60.65427 24.88322 438 ft 9 kts 137°
2026-04-13 15:20 60.65381 24.88435 435 ft 9 kts 71°
2026-04-13 15:20 60.65399 24.88472 436 ft 1 kts 93°
2026-04-13 15:21 60.65398 24.88477 436 ft 0 kts 139°